Weather at Fjällbacka Anra Airfield

Public forecast

Using degrees Celsius for public forecast. Weather courtesy of forecast.io.

Closest aviation weather report (METAR) to Fjällbacka Anra Airfield

Closest report is Trollhättan-Vänersborg Airport, 37.4 nm (69.2 km) ESE.

2024/05/27 22:50 (retrieved 28 minutes ago)

ESGT 272250Z AUTO 14002KT 0100 R15/0400N R33/P2000N -DZ NCD 12/11 Q1017

Closest aviation forecast (TAF) to Fjällbacka Anra Airfield

Closest forecast is Sandefjord Airport, Torp, 46.8 nm (86.6 km) NW.

2024/05/27 18:37 (retrieved 5 hours ago)

TAF ENTO 271700Z 2718/2818 18008KT 9999 FEW012 SCT020 TEMPO 2718/2720 SCT020CB PROB40 2718/2808 BKN008 BECMG 2812/2814 36015KT TEMPO 2812/2818 SHRA BKN020CB PROB40 2812/2817 TS